Weather History for KBLM - September, 2013

Change the Weather History Date:

Tuesday, September 24, 2013

  Actual Average Record
Temperature  
Mean Temperature 56 °F -  
Max Temperature 71 °F 69 °F 87 °F (2010)
Min Temperature 42 °F 54 °F 42 °F (1998)
Degree Days  
Heating Degree Days 8    
Growing Degree Days 6 (Base 50)    
Moisture  
Dew Point 44 °F    
Average Humidity 65    
Maximum Humidity 87    
Minimum Humidity 40    
Precipitation  
Precipitation 0.00 in - - ()
Sea Level Pressure  
Sea Level Pressure 29.98 in    
Wind  
Wind Speed 6 mph (WNW)    
Max Wind Speed 14 mph    
Max Gust Speed 17 mph    
Visibility 10 miles    
Events      
Averages and records for this station are not official NWS values.
T = Trace of Precipitation, MM = Missing Value Source: NWS Daily Summary

Daily Weather History Graph

Daily Weather History Graph

Search for Another Location

Airport or City:

Trip Planner

Search our weather history database for the weather conditions in past years. The results will help you decide how hot, cold, wet, or windy it might be!

Date:

Astronomy

Sep. 24, 2013 Rise Set
Actual Time 6:46 AM EDT 6:49 PM EDT
Civil Twilight 6:19 AM EDT 7:16 PM EDT
Nautical Twilight 5:47 AM EDT 7:48 PM EDT
Astronomical Twilight 5:15 AM EDT 8:20 PM EDT
Moon 10:05 PM EDT (9/24) 11:58 AM EDT (9/24)
Length of Visible Light 12h 57m
Length of Day
12h 03m
Waning Gibbous, 73% of the Moon is Illuminated
Sep 24
Waning Gibbous
Sep 26
Last Quarter
Oct 4
New
Oct 11
First Quarter
Oct 18
Full

Hourly Weather History & Observations

Time (EDT) Temp. Windchill Dew Point Humidity Pressure Visibility Wind Dir Wind Speed Gust Speed Precip Events Conditions
12:15 AM 50.0 °F - 41.0 °F 71% 30.04 in 10.0 mi NNW 5.8 mph - N/A   Clear
12:35 AM 48.2 °F - 41.0 °F 76% 30.04 in 10.0 mi NW 4.6 mph - N/A   Clear
12:55 AM 48.2 °F - 41.0 °F 76% 30.04 in 10.0 mi NW 3.5 mph - N/A   Clear
1:15 AM 48.2 °F - 41.0 °F 76% 30.04 in 10.0 mi NNW 6.9 mph - N/A   Clear
1:35 AM 48.2 °F - 42.8 °F 82% 30.05 in 10.0 mi NNW 5.8 mph - N/A   Clear
1:55 AM 48.2 °F - 41.0 °F 76% 30.04 in 10.0 mi NNW 4.6 mph - N/A   Clear
2:15 AM 46.4 °F 44.3 °F 41.0 °F 81% 30.04 in 10.0 mi NW 4.6 mph - N/A   Clear
2:35 AM 46.4 °F 44.3 °F 41.0 °F 81% 30.05 in 10.0 mi NW 4.6 mph - N/A   Clear
2:55 AM 46.4 °F 43.5 °F 39.2 °F 76% 30.04 in 10.0 mi NW 5.8 mph - N/A   Clear
3:15 AM 46.4 °F 43.5 °F 41.0 °F 81% 30.04 in 10.0 mi NW 5.8 mph - N/A   Clear
3:35 AM 44.6 °F 41.4 °F 39.2 °F 81% 30.04 in 10.0 mi NW 5.8 mph - N/A   Clear
3:55 AM 44.6 °F 42.2 °F 39.2 °F 81% 30.04 in 10.0 mi NW 4.6 mph - N/A   Clear
4:15 AM 44.6 °F 40.7 °F 39.2 °F 81% 30.04 in 10.0 mi NW 6.9 mph - N/A   Clear
4:35 AM 44.6 °F 41.4 °F 39.2 °F 81% 30.04 in 10.0 mi NW 5.8 mph - N/A   Clear
4:55 AM 44.6 °F 40.7 °F 39.2 °F 81% 30.04 in 10.0 mi NW 6.9 mph - N/A   Clear
5:15 AM 44.6 °F 40.7 °F 39.2 °F 81% 30.05 in 10.0 mi NW 6.9 mph - N/A   Clear
5:35 AM 44.6 °F 40.7 °F 39.2 °F 81% 30.05 in 10.0 mi NW 6.9 mph - N/A   Clear
5:55 AM 44.6 °F 41.4 °F 39.2 °F 81% 30.05 in 10.0 mi NW 5.8 mph - N/A   Clear
6:15 AM 44.6 °F 41.4 °F 39.2 °F 81% 30.06 in 10.0 mi NW 5.8 mph - N/A   Clear
6:35 AM 44.6 °F 42.2 °F 39.2 °F 81% 30.06 in 10.0 mi NW 4.6 mph - N/A   Clear
6:55 AM 42.8 °F 39.3 °F 39.2 °F 87% 30.06 in 10.0 mi NW 5.8 mph - N/A   Clear
7:15 AM 44.6 °F 41.4 °F 39.2 °F 81% 30.06 in 10.0 mi NW 5.8 mph - N/A   Clear
7:35 AM 44.6 °F 41.4 °F 39.2 °F 81% 30.06 in 10.0 mi NW 5.8 mph - N/A   Clear
7:55 AM 46.4 °F 42.9 °F 41.0 °F 81% 30.06 in 10.0 mi NW 6.9 mph - N/A   Clear
8:15 AM 48.2 °F - 41.0 °F 76% 30.06 in 10.0 mi WNW 3.5 mph - N/A   Clear
8:35 AM 48.2 °F - 42.8 °F 82% 30.05 in 10.0 mi NW 6.9 mph - N/A   Clear
8:55 AM 51.8 °F - 41.0 °F 67% 30.05 in 10.0 mi NNW 5.8 mph - N/A   Clear
9:15 AM 53.6 °F - 42.8 °F 67% 30.04 in 10.0 mi NW 8.1 mph - N/A   Clear
9:35 AM 53.6 °F - 42.8 °F 67% 30.04 in 10.0 mi WNW 6.9 mph - N/A   Clear
9:55 AM 55.4 °F - 41.0 °F 58% 30.04 in 10.0 mi West 8.1 mph - N/A   Clear
10:15 AM 55.4 °F - 41.0 °F 58% 30.03 in 10.0 mi West 9.2 mph - N/A   Clear
10:35 AM 57.2 °F - 41.0 °F 55% 30.03 in 10.0 mi West 10.4 mph - N/A   Clear
10:55 AM 57.2 °F - 41.0 °F 55% 30.02 in 10.0 mi WNW 8.1 mph - N/A   Clear
11:15 AM 59.0 °F - 42.8 °F 55% 30.01 in 10.0 mi WNW 10.4 mph - N/A   Clear
11:35 AM 60.8 °F - 42.8 °F 52% 30.01 in 10.0 mi NW 9.2 mph - N/A   Clear
11:55 AM 60.8 °F - 42.8 °F 52% 30.00 in 10.0 mi WNW 11.5 mph - N/A   Clear
12:15 PM 62.6 °F - 42.8 °F 48% 29.99 in 10.0 mi WNW 10.4 mph - N/A   Clear
12:35 PM 62.6 °F - 42.8 °F 48% 29.98 in 10.0 mi WNW 8.1 mph - N/A   Clear
12:55 PM 64.4 °F - 44.6 °F 49% 29.97 in 10.0 mi West 6.9 mph - N/A   Clear
1:15 PM 64.4 °F - 44.6 °F 49% 29.97 in 10.0 mi West 9.2 mph - N/A   Clear
1:35 PM 66.2 °F - 44.6 °F 46% 29.96 in 10.0 mi West 8.1 mph - N/A   Clear
1:55 PM 66.2 °F - 44.6 °F 46% 29.95 in 10.0 mi NW 9.2 mph - N/A   Clear
2:15 PM 68.0 °F - 44.6 °F 43% 29.94 in 10.0 mi WNW 10.4 mph 17.3 mph N/A   Clear
2:35 PM 69.8 °F - 44.6 °F 40% 29.93 in 10.0 mi West 10.4 mph - N/A   Clear
2:55 PM 69.8 °F - 44.6 °F 40% 29.92 in 10.0 mi West 13.8 mph - N/A   Clear
3:15 PM 69.8 °F - 46.4 °F 43% 29.92 in 10.0 mi WNW 11.5 mph - N/A   Clear
3:35 PM 69.8 °F - 46.4 °F 43% 29.91 in 10.0 mi West 11.5 mph - N/A   Clear
3:55 PM 69.8 °F - 46.4 °F 43% 29.90 in 10.0 mi West 11.5 mph - N/A   Clear
4:15 PM 69.8 °F - 46.4 °F 43% 29.91 in 10.0 mi West 9.2 mph - N/A   Clear
4:35 PM 71.6 °F - 46.4 °F 41% 29.90 in 10.0 mi WNW 10.4 mph - N/A   Clear
4:55 PM 71.6 °F - 46.4 °F 41% 29.90 in 10.0 mi WNW 10.4 mph - N/A   Clear
5:15 PM 71.6 °F - 46.4 °F 41% 29.90 in 10.0 mi West 8.1 mph - N/A   Clear
5:35 PM 69.8 °F - 46.4 °F 43% 29.90 in 10.0 mi West 4.6 mph - N/A   Clear
5:55 PM 69.8 °F - 48.2 °F 46% 29.90 in 10.0 mi West 5.8 mph - N/A   Clear
6:15 PM 68.0 °F - 48.2 °F 49% 29.90 in 10.0 mi West 5.8 mph - N/A   Clear
6:35 PM 66.2 °F - 48.2 °F 52% 29.90 in 10.0 mi WSW 6.9 mph - N/A   Clear
6:55 PM 66.2 °F - 48.2 °F 52% 29.90 in 10.0 mi WSW 5.8 mph - N/A   Clear
7:15 PM 64.4 °F - 48.2 °F 56% 29.90 in 10.0 mi West 4.6 mph - N/A   Clear
7:35 PM 62.6 °F - 48.2 °F 59% 29.90 in 10.0 mi West 4.6 mph - N/A   Clear
7:55 PM 62.6 °F - 48.2 °F 59% 29.91 in 10.0 mi West 5.8 mph - N/A   Clear
8:15 PM 60.8 °F - 48.2 °F 63% 29.91 in 10.0 mi West 5.8 mph - N/A   Clear
8:35 PM 59.0 °F - 48.2 °F 67% 29.91 in 10.0 mi West 4.6 mph - N/A   Clear
8:55 PM 57.2 °F - 48.2 °F 72% 29.91 in 10.0 mi Calm Calm - N/A   Clear
9:15 PM 57.2 °F - 48.2 °F 72% 29.92 in 10.0 mi Calm Calm - N/A   Clear
9:35 PM 55.4 °F - 48.2 °F 77% 29.92 in 10.0 mi West 4.6 mph - N/A   Clear
9:55 PM 55.4 °F - 46.4 °F 72% 29.92 in 10.0 mi WNW 5.8 mph - N/A   Clear
10:15 PM 55.4 °F - 48.2 °F 77% 29.92 in 10.0 mi WNW 5.8 mph - N/A   Clear
10:35 PM 53.6 °F - 46.4 °F 77% 29.92 in 10.0 mi Calm Calm - N/A   Clear
10:55 PM 55.4 °F - 46.4 °F 72% 29.93 in 10.0 mi NW 4.6 mph - N/A   Clear
11:15 PM 55.4 °F - 46.4 °F 72% 29.93 in 10.0 mi NNW 4.6 mph - N/A   Clear
11:35 PM 53.6 °F - 46.4 °F 77% 29.94 in 10.0 mi NNW 6.9 mph - N/A   Clear
11:55 PM 53.6 °F - 46.4 °F 77% 29.94 in 10.0 mi NNW 6.9 mph - N/A   Clear